Iris Victoria — V7TS8 — position and weather

sailwx.info

Track history (hours):
 
Tides and Currents Weather Stations Pressure Air Temp Water Temp Dewpoint Dewpoint Depression Visibility Wind Speed Wind Dir Waves Ship Positions

Iris Victoria

Last reported at 2015-Mar-10 08:17 UTC. Time now 2015-Mar-30 07:05 UTC.
Position N 01°09' E 103°42'.
Warning: this ship's position is 19 days out of date.

Length 228 m; draft 12.4 m.

Type: Ship (hazmat cat C). MMSI: 538003876.

Date/timePositionNaut miles runAvg speedWind from/ knotsBaromVisibWave heightAir tempDewpointWater temp
2015-Mar-10 08:17N 01°09' E 103°42'11 9.9
2015-Mar-10 07:12N 01°12' E 103°53'6 7.0
2015-Mar-10 06:19N 01°17' E 103°56'0 0.0
2015-Mar-10 04:24N 01°17' E 103°56'0 0.1
2015-Mar-10 01:24N 01°17' E 103°56'0 0.0
2015-Mar-09 22:19N 01°17' E 103°56'3 3.5
2015-Mar-09 21:33N 01°15' E 103°55'6 5.3
2015-Mar-09 20:29N 01°12' E 103°50'7 7.1
2015-Mar-09 19:33N 01°15' E 103°44'3 0.1
2015-Mar-08 19:29N 01°14' E 103°42'2 1.9
2015-Mar-08 18:32N 01°13' E 103°41'6 5.6
2015-Mar-08 17:32N 01°10' E 103°46'1111.6
2015-Mar-08 16:33N 01°15' E 103°56'2 2.0
2015-Mar-08 15:27N 01°17' E 103°56'0 0.0
2015-Mar-08 14:27N 01°17' E 103°56'0 0.0
2015-Mar-08 13:30N 01°17' E 103°56'0 0.0
2015-Mar-08 12:33N 01°17' E 103°56'0 0.1
2015-Mar-08 11:33N 01°17' E 103°56'0 0.2
2015-Mar-08 10:24N 01°17' E 103°56'0 0.0
2015-Mar-08 09:33N 01°17' E 103°56'0 0.0
2015-Mar-08 08:21N 01°17' E 103°56'0 0.1
2015-Mar-08 06:33N 01°17' E 103°56'0 0.1
2015-Mar-08 05:33N 01°17' E 103°56'0 0.1
2015-Mar-08 04:33N 01°17' E 103°56'0 0.0
2015-Mar-08 02:09N 01°17' E 103°56'0 0.0
2015-Mar-08 01:33N 01°17' E 103°56'3 2.5
2015-Mar-08 00:33N 01°15' E 103°55'  
2015-Mar-05 17:26N 01°12' E 103°48'2 1.9
2015-Mar-05 16:30N 01°13' E 103°49'0 0.2
2015-Mar-05 15:04N 01°13' E 103°50'0 0.2
2015-Mar-05 13:28N 01°13' E 103°49'0 0.1
2015-Mar-05 12:28N 01°13' E 103°49'0 0.1
2015-Mar-05 10:16N 01°13' E 103°50'0 0.0
2015-Mar-05 09:10N 01°13' E 103°50'0 0.0
2015-Mar-05 08:22N 01°13' E 103°50'0 0.1
2015-Mar-05 07:16N 01°13' E 103°50'2 1.9
2015-Mar-05 06:24N 01°13' E 103°51'7 8.1
2015-Mar-05 05:33N 01°16' E 103°58'6 6.1
2015-Mar-05 04:32N 01°16' E 104°04'  
Track history (hours):
 
Tides and Currents Weather Stations Pressure Air Temp Water Temp Dewpoint Dewpoint Depression Visibility Wind Speed Wind Dir Waves Ship Positions

Iris Victoria

Last reported at 2015-Mar-10 08:17 UTC. Time now 2015-Mar-30 07:05 UTC.
Position N 01°09' E 103°42'.
Warning: this ship's position is 19 days out of date.

Length 228 m; draft 12.4 m.

Type: Ship (hazmat cat C). MMSI: 538003876.

Date/timePositionNaut miles runAvg speedWind from/ knotsBaromVisibWave heightAir tempDewpointWater temp
2015-Mar-10 08:17N 01°09' E 103°42'11 9.9
2015-Mar-10 07:12N 01°12' E 103°53'6 7.0
2015-Mar-10 06:19N 01°17' E 103°56'0 0.0
2015-Mar-10 04:24N 01°17' E 103°56'0 0.1
2015-Mar-10 01:24N 01°17' E 103°56'0 0.0
2015-Mar-09 22:19N 01°17' E 103°56'3 3.5
2015-Mar-09 21:33N 01°15' E 103°55'6 5.3
2015-Mar-09 20:29N 01°12' E 103°50'7 7.1
2015-Mar-09 19:33N 01°15' E 103°44'3 0.1
2015-Mar-08 19:29N 01°14' E 103°42'2 1.9
2015-Mar-08 18:32N 01°13' E 103°41'6 5.6
2015-Mar-08 17:32N 01°10' E 103°46'1111.6
2015-Mar-08 16:33N 01°15' E 103°56'2 2.0
2015-Mar-08 15:27N 01°17' E 103°56'0 0.0
2015-Mar-08 14:27N 01°17' E 103°56'0 0.0
2015-Mar-08 13:30N 01°17' E 103°56'0 0.0
2015-Mar-08 12:33N 01°17' E 103°56'0 0.1
2015-Mar-08 11:33N 01°17' E 103°56'0 0.2
2015-Mar-08 10:24N 01°17' E 103°56'0 0.0
2015-Mar-08 09:33N 01°17' E 103°56'0 0.0
2015-Mar-08 08:21N 01°17' E 103°56'0 0.1
2015-Mar-08 06:33N 01°17' E 103°56'0 0.1
2015-Mar-08 05:33N 01°17' E 103°56'0 0.1
2015-Mar-08 04:33N 01°17' E 103°56'0 0.0
2015-Mar-08 02:09N 01°17' E 103°56'0 0.0
2015-Mar-08 01:33N 01°17' E 103°56'3 2.5
2015-Mar-08 00:33N 01°15' E 103°55'  
2015-Mar-05 17:26N 01°12' E 103°48'2 1.9
2015-Mar-05 16:30N 01°13' E 103°49'0 0.2
2015-Mar-05 15:04N 01°13' E 103°50'0 0.2
2015-Mar-05 13:28N 01°13' E 103°49'0 0.1
2015-Mar-05 12:28N 01°13' E 103°49'0 0.1
2015-Mar-05 10:16N 01°13' E 103°50'0 0.0
2015-Mar-05 09:10N 01°13' E 103°50'0 0.0
2015-Mar-05 08:22N 01°13' E 103°50'0 0.1
2015-Mar-05 07:16N 01°13' E 103°50'2 1.9
2015-Mar-05 06:24N 01°13' E 103°51'7 8.1
2015-Mar-05 05:33N 01°16' E 103°58'6 6.1
2015-Mar-05 04:32N 01°16' E 104°04'  

Dump ship's entire track history